createdAt,value
2023-05-05T00:01:35.827Z,68.37
2023-05-05T00:04:59.873Z,68.98
2023-05-05T00:08:06.288Z,68.78
2023-05-05T00:11:19.311Z,68.75
2023-05-05T00:14:31.005Z,69.47
2023-05-05T00:17:49.314Z,69.33
2023-05-05T00:20:55.105Z,69.43
2023-05-05T00:23:59.690Z,69.52
2023-05-05T00:27:04.321Z,69.58
2023-05-05T00:30:18.457Z,69.99
2023-05-05T00:33:32.020Z,69.93
2023-05-05T00:36:46.872Z,70.47
2023-05-05T00:39:57.781Z,70.10
2023-05-05T00:43:14.316Z,71.07
2023-05-05T00:46:41.200Z,70.69
2023-05-05T00:49:52.069Z,70.62
2023-05-05T00:53:00.760Z,70.47
2023-05-05T00:56:09.100Z,70.94
2023-05-05T00:59:26.020Z,71.30
2023-05-05T01:02:32.692Z,71.10
2023-05-05T01:06:24.530Z,71.11
2023-05-05T01:10:18.103Z,71.76
2023-05-05T01:13:34.520Z,71.30
2023-05-05T01:16:46.025Z,71.45
2023-05-05T01:20:26.564Z,71.80
2023-05-05T01:24:13.737Z,71.77
2023-05-05T01:27:36.105Z,70.91
2023-05-05T01:31:03.946Z,70.77
2023-05-05T01:34:27.168Z,70.84
2023-05-05T01:37:53.106Z,70.53
2023-05-05T01:41:24.712Z,70.72
2023-05-05T01:44:41.158Z,70.53
2023-05-05T01:48:10.567Z,70.93
2023-05-05T01:51:27.606Z,70.42
2023-05-05T01:54:35.200Z,69.63
2023-05-05T01:57:45.564Z,69.56
2023-05-05T02:01:00.633Z,70.04
2023-05-05T02:04:13.103Z,70.26
2023-05-05T02:07:37.147Z,70.25
2023-05-05T02:10:50.740Z,70.30
2023-05-05T02:13:54.659Z,70.97
2023-05-05T02:17:08.948Z,71.15
2023-05-05T02:20:16.825Z,71.56
2023-05-05T02:23:30.275Z,71.78
2023-05-05T02:26:43.885Z,71.72
2023-05-05T02:29:59.110Z,71.82
2023-05-05T02:33:11.370Z,71.97
2023-05-05T02:36:32.804Z,73.18
2023-05-05T02:39:50.075Z,74.30
2023-05-05T02:42:57.509Z,73.31
2023-05-05T02:46:23.146Z,74.57
2023-05-05T02:49:30.969Z,73.57
2023-05-05T02:52:47.397Z,73.69
2023-05-05T02:56:08.378Z,74.19
2023-05-05T02:59:16.702Z,74.35
2023-05-05T03:02:29.808Z,74.97
2023-05-05T03:05:45.941Z,75.28
2023-05-05T03:09:13.224Z,75.42
2023-05-05T03:12:25.810Z,75.77
2023-05-05T03:19:19.402Z,76.95
2023-05-05T03:22:31.938Z,77.41
2023-05-05T03:25:45.747Z,77.52
2023-05-05T03:28:54.920Z,77.75
2023-05-05T03:32:12.443Z,78.64
2023-05-05T03:35:33.912Z,77.63
2023-05-05T03:38:46.377Z,78.19
2023-05-05T03:42:07.892Z,78.99
2023-05-05T03:45:35.041Z,78.67
2023-05-05T03:49:07.407Z,78.59
2023-05-05T03:52:15.144Z,78.16
2023-05-05T03:55:30.317Z,78.80
2023-05-05T03:58:34.549Z,77.82
2023-05-05T04:01:48.212Z,77.45
2023-05-05T04:04:59.356Z,77.14
2023-05-05T04:08:12.889Z,77.08
2023-05-05T04:11:24.926Z,76.88
2023-05-05T04:14:39.374Z,76.85
2023-05-05T04:17:54.514Z,75.98
2023-05-05T04:21:08.409Z,75.07
2023-05-05T04:24:20.666Z,74.69
2023-05-05T04:27:58.958Z,73.96
2023-05-05T04:31:12.894Z,73.55
2023-05-05T04:34:27.619Z,73.22
2023-05-05T04:37:33.988Z,72.72
2023-05-05T04:40:45.377Z,72.47
2023-05-05T04:44:00.831Z,72.08
2023-05-05T04:47:15.318Z,71.71
2023-05-05T04:50:29.054Z,71.82
2023-05-05T04:53:41.858Z,71.31
2023-05-05T04:56:51.327Z,71.01
2023-05-05T04:59:59.611Z,70.68
2023-05-05T05:03:20.047Z,70.20
2023-05-05T05:06:24.747Z,69.79
2023-05-05T05:09:33.616Z,69.61
2023-05-05T05:12:44.957Z,69.23
2023-05-05T05:15:53.800Z,69.04
2023-05-05T05:19:05.264Z,68.32
2023-05-05T05:22:14.939Z,67.43
2023-05-05T05:25:23.758Z,67.21
2023-05-05T05:28:28.858Z,66.70
2023-05-05T05:31:34.536Z,66.00
2023-05-05T05:34:40.388Z,65.64
2023-05-05T05:37:55.567Z,65.06
2023-05-05T05:41:07.818Z,64.18
2023-05-05T05:44:13.467Z,63.71
2023-05-05T05:47:30.551Z,62.36
2023-05-05T05:50:41.826Z,61.43
2023-05-05T05:53:48.007Z,61.19
2023-05-05T05:57:02.612Z,59.93
2023-05-05T06:00:07.697Z,57.34
2023-05-05T06:03:17.282Z,56.37
2023-05-05T06:06:39.514Z,57.22
2023-05-05T06:09:52.464Z,56.68
2023-05-05T06:13:10.662Z,56.92
2023-05-05T06:16:21.703Z,56.63
2023-05-05T06:19:31.717Z,56.60
2023-05-05T06:22:53.039Z,55.46
2023-05-05T06:26:13.241Z,54.44
2023-05-05T06:29:25.561Z,52.90
2023-05-05T06:32:49.191Z,50.96
2023-05-05T06:36:10.133Z,48.07
2023-05-05T06:39:38.294Z,48.38
2023-05-05T06:42:46.479Z,50.11
2023-05-05T06:46:04.724Z,52.55
2023-05-05T06:49:19.203Z,53.81
2023-05-05T06:53:05.831Z,54.10
2023-05-05T06:56:27.801Z,55.21
2023-05-05T06:59:35.406Z,54.76
2023-05-05T07:02:48.858Z,55.60
2023-05-05T07:05:58.965Z,55.14
2023-05-05T07:09:17.037Z,53.50
2023-05-05T07:12:28.384Z,54.06
2023-05-05T07:15:51.103Z,52.89
2023-05-05T07:19:02.223Z,52.68
2023-05-05T07:22:29.590Z,51.41
2023-05-05T07:25:42.047Z,50.98
2023-05-05T07:28:57.593Z,50.78
2023-05-05T07:32:16.044Z,49.91
2023-05-05T07:35:32.692Z,49.48
2023-05-05T07:38:54.888Z,48.66
2023-05-05T07:42:12.927Z,47.86
2023-05-05T07:45:28.882Z,45.26
2023-05-05T07:48:50.155Z,42.67
2023-05-05T07:52:01.718Z,41.58
2023-05-05T07:55:13.026Z,39.04
2023-05-05T07:58:45.395Z,38.00
2023-05-05T08:02:01.528Z,33.49
2023-05-05T08:05:26.203Z,31.80
2023-05-05T08:08:50.305Z,31.43
2023-05-05T08:12:54.283Z,29.37
2023-05-05T08:16:06.390Z,27.54
2023-05-05T08:22:59.011Z,27.36
2023-05-05T08:26:23.078Z,26.53
2023-05-05T08:29:47.429Z,23.81
2023-05-05T08:32:58.511Z,25.13
2023-05-05T08:36:09.197Z,22.57
2023-05-05T08:40:08.091Z,22.52
2023-05-05T08:43:26.758Z,23.33
2023-05-05T08:47:00.453Z,23.05
2023-05-05T08:50:20.807Z,21.79
2023-05-05T08:53:55.124Z,22.90
2023-05-05T08:57:28.075Z,22.95
2023-05-05T09:00:52.519Z,21.74
2023-05-05T09:04:12.079Z,21.48
2023-05-05T09:07:18.711Z,20.44
2023-05-05T09:10:53.475Z,21.70
2023-05-05T09:14:38.482Z,19.65
2023-05-05T09:17:50.642Z,20.74
2023-05-05T09:21:39.947Z,20.63
2023-05-05T09:25:16.762Z,20.78
2023-05-05T09:28:44.843Z,20.35
2023-05-05T09:32:22.978Z,20.32
2023-05-05T09:35:29.411Z,21.91
2023-05-05T09:38:41.291Z,19.35
2023-05-05T09:41:56.174Z,20.14
2023-05-05T09:45:01.261Z,23.20
2023-05-05T09:48:15.240Z,22.90
2023-05-05T09:51:35.616Z,21.65
2023-05-05T09:54:40.830Z,21.44
2023-05-05T09:57:53.304Z,25.78
2023-05-05T10:00:57.486Z,23.90
2023-05-05T10:04:07.394Z,21.97
2023-05-05T10:07:25.695Z,20.24
2023-05-05T10:10:31.944Z,19.00
2023-05-05T10:13:42.190Z,19.06
2023-05-05T10:16:55.733Z,16.87
2023-05-05T10:20:11.470Z,18.28
2023-05-05T10:23:26.769Z,18.53
2023-05-05T10:26:37.867Z,20.59
2023-05-05T10:30:15.109Z,19.42
2023-05-05T10:33:34.099Z,18.50
2023-05-05T10:36:43.225Z,23.62
2023-05-05T10:39:49.665Z,23.38
2023-05-05T10:42:56.827Z,21.23
2023-05-05T10:46:03.432Z,19.86
2023-05-05T10:49:24.099Z,18.05
2023-05-05T10:53:02.233Z,18.12
2023-05-05T10:56:31.423Z,17.03
2023-05-05T10:59:47.844Z,18.20
2023-05-05T11:03:28.235Z,19.37
2023-05-05T11:06:39.409Z,18.73
2023-05-05T11:10:06.573Z,18.26
2023-05-05T11:13:18.615Z,17.13
2023-05-05T11:16:45.945Z,19.41
2023-05-05T11:19:48.586Z,22.11
2023-05-05T11:23:03.538Z,24.79
2023-05-05T11:26:06.083Z,26.02
2023-05-05T11:29:09.989Z,26.33
2023-05-05T11:32:25.900Z,23.73
2023-05-05T11:36:06.025Z,21.00
2023-05-05T11:39:34.219Z,19.40
2023-05-05T11:42:44.456Z,22.33
2023-05-05T11:45:46.747Z,22.36
2023-05-05T11:48:55.649Z,19.18
2023-05-05T11:52:18.267Z,17.92
2023-05-05T11:55:27.907Z,18.09
2023-05-05T11:58:32.616Z,18.20
2023-05-05T12:01:40.952Z,18.20
2023-05-05T12:04:48.571Z,15.80
2023-05-05T12:07:59.710Z,18.15
2023-05-05T12:11:11.760Z,20.75
2023-05-05T12:14:14.151Z,18.61
2023-05-05T12:17:16.946Z,17.76
2023-05-05T12:20:32.404Z,16.47
2023-05-05T12:23:39.014Z,18.80
2023-05-05T12:26:45.121Z,18.82
2023-05-05T12:29:54.779Z,18.87
2023-05-05T12:33:07.289Z,18.70
2023-05-05T12:36:14.637Z,20.49
2023-05-05T12:39:37.785Z,23.58
2023-05-05T12:42:46.412Z,21.44
2023-05-05T12:45:58.777Z,20.74
2023-05-05T12:49:34.085Z,19.77
2023-05-05T12:52:46.394Z,18.86
2023-05-05T12:55:52.499Z,18.24
2023-05-05T12:58:57.821Z,17.20
2023-05-05T13:02:03.908Z,17.18
2023-05-05T13:05:08.722Z,17.59
2023-05-05T13:08:23.169Z,17.93
2023-05-05T13:11:27.785Z,18.98
2023-05-05T13:14:31.939Z,17.98
2023-05-05T13:17:37.016Z,17.40
2023-05-05T13:20:39.701Z,16.71
2023-05-05T13:23:50.783Z,16.64
2023-05-05T13:26:56.629Z,16.54
2023-05-05T13:30:04.606Z,17.33
2023-05-05T13:33:10.233Z,16.71
2023-05-05T13:36:13.120Z,17.41
2023-05-05T13:39:17.931Z,19.26
2023-05-05T13:42:28.282Z,18.42
2023-05-05T13:45:39.429Z,19.13
2023-05-05T13:48:49.219Z,19.06
2023-05-05T13:51:52.524Z,18.59
2023-05-05T13:54:57.840Z,19.17
2023-05-05T13:58:15.439Z,20.78
2023-05-05T14:01:23.346Z,22.81
2023-05-05T14:04:28.135Z,22.08
2023-05-05T14:07:36.382Z,23.94
2023-05-05T14:10:52.035Z,25.51
2023-05-05T14:13:57.560Z,24.62
2023-05-05T14:17:00.458Z,23.51
2023-05-05T14:20:11.180Z,23.12
2023-05-05T14:23:21.560Z,25.61
2023-05-05T14:26:24.123Z,23.95
2023-05-05T14:29:26.768Z,22.99
2023-05-05T14:32:29.801Z,21.99
2023-05-05T14:35:34.698Z,21.41
2023-05-05T14:38:43.457Z,24.95
2023-05-05T14:41:48.816Z,26.25
2023-05-05T14:45:02.048Z,28.80
2023-05-05T14:48:07.362Z,29.05
2023-05-05T14:51:16.508Z,28.51
2023-05-05T14:54:28.603Z,26.89
2023-05-05T14:57:31.808Z,27.95
2023-05-05T15:00:40.302Z,29.10
2023-05-05T15:03:45.430Z,30.78
2023-05-05T15:06:53.583Z,31.08
2023-05-05T15:09:59.835Z,30.13
2023-05-05T15:13:06.156Z,29.38
2023-05-05T15:16:15.840Z,30.66
2023-05-05T15:19:25.780Z,31.19
2023-05-05T15:22:28.286Z,31.63
2023-05-05T15:25:30.963Z,31.27
2023-05-05T15:28:38.297Z,31.42
2023-05-05T15:31:45.284Z,32.41
2023-05-05T15:34:50.482Z,31.68
2023-05-05T15:38:10.071Z,31.79
2023-05-05T15:41:22.359Z,31.40
2023-05-05T15:44:26.774Z,31.85
2023-05-05T15:47:29.672Z,32.78
2023-05-05T15:50:41.785Z,32.50
2023-05-05T15:53:45.434Z,32.49
2023-05-05T15:56:51.313Z,32.63
2023-05-05T16:03:31.867Z,33.50
2023-05-05T16:06:36.813Z,33.74
2023-05-05T16:09:41.445Z,33.61
2023-05-05T16:12:52.901Z,33.90
2023-05-05T16:15:56.155Z,34.09
2023-05-05T16:19:13.271Z,34.51
2023-05-05T16:22:21.271Z,34.71
2023-05-05T16:25:23.819Z,35.37
2023-05-05T16:28:34.448Z,35.32
2023-05-05T16:31:37.143Z,35.56
2023-05-05T16:34:43.422Z,35.50
2023-05-05T16:37:46.449Z,35.88
2023-05-05T16:40:49.715Z,36.03
2023-05-05T16:43:59.288Z,36.37
2023-05-05T16:47:03.081Z,36.82
2023-05-05T16:50:08.704Z,37.66
2023-05-05T16:53:13.704Z,37.41
2023-05-05T16:56:17.892Z,38.12
2023-05-05T16:59:23.409Z,38.32
2023-05-05T17:02:31.554Z,38.41
2023-05-05T17:05:37.231Z,38.58
2023-05-05T17:08:47.658Z,38.84
2023-05-05T17:11:54.613Z,39.69
2023-05-05T17:15:05.022Z,39.65
2023-05-05T17:18:08.740Z,39.84
2023-05-05T17:21:15.573Z,40.24
2023-05-05T17:24:18.342Z,40.79
2023-05-05T17:27:25.283Z,41.23
2023-05-05T17:30:34.274Z,41.59
2023-05-05T17:33:39.763Z,41.81
2023-05-05T17:36:45.496Z,42.42
2023-05-05T17:39:51.293Z,42.81
2023-05-05T17:43:02.085Z,43.50
2023-05-05T17:46:14.232Z,44.11
2023-05-05T17:49:27.463Z,44.92
2023-05-05T17:52:35.192Z,45.48
2023-05-05T17:55:48.445Z,45.76
2023-05-05T17:58:50.886Z,46.18
2023-05-05T18:02:00.767Z,46.50
2023-05-05T18:05:17.341Z,47.03
2023-05-05T18:08:28.090Z,47.75
2023-05-05T18:11:41.764Z,48.26
2023-05-05T18:14:47.081Z,48.78
2023-05-05T18:17:52.287Z,49.26
2023-05-05T18:20:55.032Z,50.12
2023-05-05T18:24:15.888Z,51.45
2023-05-05T18:27:33.432Z,51.34
2023-05-05T18:30:38.746Z,52.10
2023-05-05T18:33:41.324Z,52.26
2023-05-05T18:36:49.626Z,52.94
2023-05-05T18:39:56.799Z,54.09
2023-05-05T18:43:01.633Z,53.91
2023-05-05T18:46:17.127Z,54.45
2023-05-05T18:49:26.770Z,55.37
2023-05-05T18:52:41.041Z,55.77
2023-05-05T18:55:45.918Z,56.10
2023-05-05T18:58:51.380Z,56.61
2023-05-05T19:01:56.871Z,57.15
2023-05-05T19:05:04.897Z,57.64
2023-05-05T19:08:11.301Z,58.09
2023-05-05T19:11:15.701Z,59.28
2023-05-05T19:14:18.485Z,59.73
2023-05-05T19:17:23.042Z,59.85
2023-05-05T19:20:35.299Z,60.31
2023-05-05T19:23:41.084Z,60.80
2023-05-05T19:26:45.272Z,61.36
2023-05-05T19:29:53.258Z,61.61
2023-05-05T19:33:03.572Z,61.94
2023-05-05T19:36:11.256Z,62.59
2023-05-05T19:39:17.767Z,62.97
2023-05-05T19:42:29.756Z,63.16
2023-05-05T19:45:36.268Z,63.75
2023-05-05T19:48:44.434Z,64.76
2023-05-05T19:51:53.763Z,64.97
2023-05-05T19:54:57.086Z,65.26
2023-05-05T19:58:00.718Z,66.17
2023-05-05T20:01:05.412Z,66.81
2023-05-05T20:04:10.542Z,66.81
2023-05-05T20:07:19.042Z,67.67
2023-05-05T20:10:34.275Z,67.15
2023-05-05T20:13:43.718Z,67.58
2023-05-05T20:16:55.222Z,68.13
2023-05-05T20:20:03.680Z,68.44
2023-05-05T20:23:11.851Z,70.12
2023-05-05T20:26:17.673Z,69.73
2023-05-05T20:29:22.303Z,69.99
2023-05-05T20:32:26.157Z,70.43
2023-05-05T20:35:40.086Z,70.64
2023-05-05T20:38:45.210Z,71.71
2023-05-05T20:41:56.881Z,72.53
2023-05-05T20:45:03.327Z,72.94
2023-05-05T20:48:15.179Z,72.37
2023-05-05T20:51:18.832Z,72.54
2023-05-05T20:54:27.284Z,72.33
2023-05-05T20:57:35.019Z,71.81
2023-05-05T21:00:46.782Z,71.81
2023-05-05T21:03:53.083Z,71.89
2023-05-05T21:07:00.191Z,71.49
2023-05-05T21:10:04.442Z,71.86
2023-05-05T21:13:10.796Z,71.85
2023-05-05T21:16:29.931Z,71.92
2023-05-05T21:19:36.488Z,71.89
2023-05-05T21:22:52.476Z,72.21
2023-05-05T21:26:02.238Z,72.12
2023-05-05T21:29:07.664Z,72.15
2023-05-05T21:32:12.742Z,72.85
2023-05-05T21:35:26.493Z,72.06
2023-05-05T21:38:37.074Z,72.13
2023-05-05T21:41:44.803Z,72.26
2023-05-05T21:44:59.199Z,71.95
2023-05-05T21:48:04.864Z,72.21
2023-05-05T21:51:19.697Z,72.12
2023-05-05T21:54:30.772Z,71.83
2023-05-05T21:57:40.736Z,71.21
2023-05-05T22:00:53.823Z,70.59
2023-05-05T22:04:01.502Z,68.95
2023-05-05T22:10:48.290Z,68.21
2023-05-05T22:14:00.160Z,67.40
2023-05-05T22:17:06.356Z,67.07
2023-05-05T22:20:21.720Z,67.15
2023-05-05T22:23:26.205Z,67.03
2023-05-05T22:26:45.880Z,66.88
2023-05-05T22:29:48.814Z,66.55
2023-05-05T22:32:59.821Z,66.24
2023-05-05T22:36:15.703Z,64.46
2023-05-05T22:39:20.016Z,63.57
2023-05-05T22:42:46.979Z,64.05
2023-05-05T22:46:10.091Z,64.22
2023-05-05T22:49:22.492Z,64.37
2023-05-05T22:52:32.765Z,64.91
2023-05-05T22:55:37.675Z,65.41
2023-05-05T22:58:48.917Z,65.51
2023-05-05T23:01:59.094Z,65.55
2023-05-05T23:05:13.041Z,65.87
2023-05-05T23:08:19.279Z,66.00
2023-05-05T23:11:25.149Z,66.37
2023-05-05T23:14:39.851Z,66.94
2023-05-05T23:17:48.114Z,67.14
2023-05-05T23:20:50.790Z,68.09
2023-05-05T23:23:58.894Z,67.96
2023-05-05T23:27:04.281Z,68.18
2023-05-05T23:30:23.431Z,68.45
2023-05-05T23:33:33.901Z,68.77
2023-05-05T23:36:42.757Z,69.10
2023-05-05T23:40:03.251Z,69.41
2023-05-05T23:43:06.834Z,69.79
2023-05-05T23:46:14.726Z,69.93
2023-05-05T23:49:21.768Z,70.34
2023-05-05T23:55:48.893Z,70.91
2023-05-05T23:58:59.599Z,71.26
